sensor_id;sensor_type;location;lat;lon;timestamp;P1;durP1;ratioP1;P2;durP2;ratioP2
4355;SDS011;64374;51.482;7.408;2023-06-22T00:00:47;7.07;;;5.33;;
4355;SDS011;64374;51.482;7.408;2023-06-22T00:03:18;9.37;;;6.47;;
4355;SDS011;64374;51.482;7.408;2023-06-22T00:05:48;6.43;;;5.30;;
4355;SDS011;64374;51.482;7.408;2023-06-22T00:08:17;5.43;;;4.63;;
4355;SDS011;64374;51.482;7.408;2023-06-22T00:10:46;8.03;;;5.20;;
4355;SDS011;64374;51.482;7.408;2023-06-22T00:13:16;6.27;;;4.90;;
4355;SDS011;64374;51.482;7.408;2023-06-22T00:15:45;10.67;;;6.27;;
4355;SDS011;64374;51.482;7.408;2023-06-22T00:18:13;9.40;;;6.13;;
4355;SDS011;64374;51.482;7.408;2023-06-22T00:20:42;7.70;;;5.57;;
4355;SDS011;64374;51.482;7.408;2023-06-22T00:23:12;6.70;;;6.10;;
4355;SDS011;64374;51.482;7.408;2023-06-22T00:25:41;7.30;;;5.60;;
4355;SDS011;64374;51.482;7.408;2023-06-22T00:28:13;9.37;;;6.43;;
4355;SDS011;64374;51.482;7.408;2023-06-22T00:30:43;6.73;;;4.50;;
4355;SDS011;64374;51.482;7.408;2023-06-22T00:33:12;10.17;;;6.70;;
4355;SDS011;64374;51.482;7.408;2023-06-22T00:35:42;6.20;;;5.60;;
4355;SDS011;64374;51.482;7.408;2023-06-22T00:38:11;10.10;;;6.50;;
4355;SDS011;64374;51.482;7.408;2023-06-22T00:40:41;11.17;;;5.80;;
4355;SDS011;64374;51.482;7.408;2023-06-22T00:43:09;7.77;;;6.03;;
4355;SDS011;64374;51.482;7.408;2023-06-22T00:45:38;14.23;;;6.20;;
4355;SDS011;64374;51.482;7.408;2023-06-22T00:48:10;10.80;;;6.20;;
4355;SDS011;64374;51.482;7.408;2023-06-22T00:50:41;8.87;;;6.33;;
4355;SDS011;64374;51.482;7.408;2023-06-22T00:53:10;11.93;;;6.50;;
4355;SDS011;64374;51.482;7.408;2023-06-22T00:55:41;12.30;;;6.13;;
4355;SDS011;64374;51.482;7.408;2023-06-22T00:58:11;9.90;;;6.47;;
4355;SDS011;64374;51.482;7.408;2023-06-22T01:00:40;13.43;;;6.47;;
4355;SDS011;64374;51.482;7.408;2023-06-22T01:03:11;6.90;;;5.33;;
4355;SDS011;64374;51.482;7.408;2023-06-22T01:05:40;7.07;;;5.50;;
4355;SDS011;64374;51.482;7.408;2023-06-22T01:08:18;10.30;;;7.70;;
4355;SDS011;64374;51.482;7.408;2023-06-22T01:10:55;7.30;;;5.80;;
4355;SDS011;64374;51.482;7.408;2023-06-22T01:13:35;9.77;;;6.50;;
4355;SDS011;64374;51.482;7.408;2023-06-22T01:16:10;7.53;;;6.17;;
4355;SDS011;64374;51.482;7.408;2023-06-22T01:18:43;7.10;;;6.10;;
4355;SDS011;64374;51.482;7.408;2023-06-22T01:21:16;6.90;;;5.93;;
4355;SDS011;64374;51.482;7.408;2023-06-22T01:23:53;10.20;;;6.47;;
4355;SDS011;64374;51.482;7.408;2023-06-22T01:26:42;11.43;;;6.90;;
4355;SDS011;64374;51.482;7.408;2023-06-22T01:29:21;8.43;;;6.37;;
4355;SDS011;64374;51.482;7.408;2023-06-22T01:31:54;7.90;;;6.50;;
4355;SDS011;64374;51.482;7.408;2023-06-22T01:34:27;7.80;;;7.03;;
4355;SDS011;64374;51.482;7.408;2023-06-22T01:37:02;11.53;;;6.40;;
4355;SDS011;64374;51.482;7.408;2023-06-22T01:39:31;7.60;;;5.90;;
4355;SDS011;64374;51.482;7.408;2023-06-22T01:42:00;6.90;;;6.10;;
4355;SDS011;64374;51.482;7.408;2023-06-22T01:44:34;10.37;;;5.13;;
4355;SDS011;64374;51.482;7.408;2023-06-22T01:47:03;7.90;;;6.13;;
4355;SDS011;64374;51.482;7.408;2023-06-22T01:49:35;11.70;;;6.60;;
4355;SDS011;64374;51.482;7.408;2023-06-22T01:52:04;8.70;;;7.80;;
4355;SDS011;64374;51.482;7.408;2023-06-22T01:54:38;13.23;;;7.17;;
4355;SDS011;64374;51.482;7.408;2023-06-22T01:57:07;6.47;;;5.63;;
4355;SDS011;64374;51.482;7.408;2023-06-22T01:59:37;9.03;;;6.97;;
4355;SDS011;64374;51.482;7.408;2023-06-22T02:02:20;9.50;;;7.00;;
4355;SDS011;64374;51.482;7.408;2023-06-22T02:04:57;9.87;;;7.87;;
4355;SDS011;64374;51.482;7.408;2023-06-22T02:07:29;10.80;;;7.80;;
4355;SDS011;64374;51.482;7.408;2023-06-22T02:10:02;10.77;;;8.07;;
4355;SDS011;64374;51.482;7.408;2023-06-22T02:12:33;9.83;;;7.37;;
4355;SDS011;64374;51.482;7.408;2023-06-22T02:15:06;7.77;;;6.40;;
4355;SDS011;64374;51.482;7.408;2023-06-22T02:17:36;8.93;;;8.03;;
4355;SDS011;64374;51.482;7.408;2023-06-22T02:20:05;11.27;;;7.90;;
4355;SDS011;64374;51.482;7.408;2023-06-22T02:22:41;9.43;;;8.43;;
4355;SDS011;64374;51.482;7.408;2023-06-22T02:25:10;15.03;;;8.17;;
4355;SDS011;64374;51.482;7.408;2023-06-22T02:27:39;10.23;;;8.80;;
4355;SDS011;64374;51.482;7.408;2023-06-22T02:30:09;8.73;;;7.83;;
4355;SDS011;64374;51.482;7.408;2023-06-22T02:32:38;14.50;;;8.77;;
4355;SDS011;64374;51.482;7.408;2023-06-22T02:35:09;7.90;;;6.80;;
4355;SDS011;64374;51.482;7.408;2023-06-22T02:37:38;8.90;;;7.50;;
4355;SDS011;64374;51.482;7.408;2023-06-22T02:40:09;9.13;;;7.40;;
4355;SDS011;64374;51.482;7.408;2023-06-22T02:42:38;8.10;;;7.30;;
4355;SDS011;64374;51.482;7.408;2023-06-22T02:45:07;9.17;;;8.27;;
4355;SDS011;64374;51.482;7.408;2023-06-22T02:47:42;9.77;;;7.90;;
4355;SDS011;64374;51.482;7.408;2023-06-22T02:50:11;10.63;;;8.57;;
4355;SDS011;64374;51.482;7.408;2023-06-22T02:52:39;9.67;;;8.67;;
4355;SDS011;64374;51.482;7.408;2023-06-22T02:55:08;8.80;;;7.80;;
4355;SDS011;64374;51.482;7.408;2023-06-22T02:57:36;10.30;;;7.40;;
4355;SDS011;64374;51.482;7.408;2023-06-22T03:00:12;13.13;;;8.73;;
4355;SDS011;64374;51.482;7.408;2023-06-22T03:02:47;12.67;;;9.13;;
4355;SDS011;64374;51.482;7.408;2023-06-22T03:05:18;12.53;;;10.37;;
4355;SDS011;64374;51.482;7.408;2023-06-22T03:07:48;10.97;;;9.10;;
4355;SDS011;64374;51.482;7.408;2023-06-22T03:10:17;8.70;;;7.80;;
4355;SDS011;64374;51.482;7.408;2023-06-22T03:12:45;12.80;;;8.33;;
4355;SDS011;64374;51.482;7.408;2023-06-22T03:15:15;12.53;;;7.50;;
4355;SDS011;64374;51.482;7.408;2023-06-22T03:17:44;10.90;;;8.20;;
4355;SDS011;64374;51.482;7.408;2023-06-22T03:20:12;11.13;;;8.40;;
4355;SDS011;64374;51.482;7.408;2023-06-22T03:22:41;11.00;;;9.40;;
4355;SDS011;64374;51.482;7.408;2023-06-22T03:25:11;11.47;;;9.77;;
4355;SDS011;64374;51.482;7.408;2023-06-22T03:27:43;9.07;;;8.27;;
4355;SDS011;64374;51.482;7.408;2023-06-22T03:30:12;12.77;;;8.47;;
4355;SDS011;64374;51.482;7.408;2023-06-22T03:32:42;9.90;;;8.30;;
4355;SDS011;64374;51.482;7.408;2023-06-22T03:35:11;9.60;;;8.63;;
4355;SDS011;64374;51.482;7.408;2023-06-22T03:37:40;9.37;;;8.37;;
4355;SDS011;64374;51.482;7.408;2023-06-22T03:40:09;14.07;;;9.60;;
4355;SDS011;64374;51.482;7.408;2023-06-22T03:42:39;12.47;;;9.73;;
4355;SDS011;64374;51.482;7.408;2023-06-22T03:45:09;10.60;;;8.87;;
4355;SDS011;64374;51.482;7.408;2023-06-22T03:47:38;10.97;;;8.50;;
4355;SDS011;64374;51.482;7.408;2023-06-22T03:50:08;13.13;;;9.20;;
4355;SDS011;64374;51.482;7.408;2023-06-22T03:52:58;14.93;;;9.60;;
4355;SDS011;64374;51.482;7.408;2023-06-22T03:55:27;12.07;;;9.97;;
4355;SDS011;64374;51.482;7.408;2023-06-22T03:57:58;14.90;;;9.23;;
4355;SDS011;64374;51.482;7.408;2023-06-22T04:00:32;12.27;;;9.63;;
4355;SDS011;64374;51.482;7.408;2023-06-22T04:03:01;9.87;;;8.83;;
4355;SDS011;64374;51.482;7.408;2023-06-22T04:05:31;11.40;;;9.93;;
4355;SDS011;64374;51.482;7.408;2023-06-22T04:07:59;11.83;;;9.17;;
4355;SDS011;64374;51.482;7.408;2023-06-22T04:10:28;10.47;;;9.37;;
4355;SDS011;64374;51.482;7.408;2023-06-22T04:12:57;13.10;;;9.20;;
4355;SDS011;64374;51.482;7.408;2023-06-22T04:15:25;12.17;;;9.23;;
4355;SDS011;64374;51.482;7.408;2023-06-22T04:17:54;13.47;;;8.30;;
4355;SDS011;64374;51.482;7.408;2023-06-22T04:20:23;10.80;;;9.23;;
4355;SDS011;64374;51.482;7.408;2023-06-22T04:22:59;14.00;;;10.00;;
4355;SDS011;64374;51.482;7.408;2023-06-22T04:25:29;10.23;;;9.23;;
4355;SDS011;64374;51.482;7.408;2023-06-22T04:27:57;14.57;;;9.83;;
4355;SDS011;64374;51.482;7.408;2023-06-22T04:30:25;11.60;;;10.17;;
4355;SDS011;64374;51.482;7.408;2023-06-22T04:32:54;13.97;;;10.20;;
4355;SDS011;64374;51.482;7.408;2023-06-22T04:35:28;13.73;;;9.60;;
4355;SDS011;64374;51.482;7.408;2023-06-22T04:37:57;11.30;;;9.93;;
4355;SDS011;64374;51.482;7.408;2023-06-22T04:40:27;12.30;;;9.40;;
4355;SDS011;64374;51.482;7.408;2023-06-22T04:42:57;11.20;;;10.00;;
4355;SDS011;64374;51.482;7.408;2023-06-22T04:45:29;10.80;;;9.03;;
4355;SDS011;64374;51.482;7.408;2023-06-22T04:47:57;13.57;;;9.90;;
4355;SDS011;64374;51.482;7.408;2023-06-22T04:50:26;11.60;;;10.40;;
4355;SDS011;64374;51.482;7.408;2023-06-22T04:52:55;14.73;;;10.33;;
4355;SDS011;64374;51.482;7.408;2023-06-22T04:55:25;11.23;;;10.00;;
4355;SDS011;64374;51.482;7.408;2023-06-22T04:57:53;17.13;;;9.60;;
4355;SDS011;64374;51.482;7.408;2023-06-22T05:00:21;10.00;;;8.70;;
4355;SDS011;64374;51.482;7.408;2023-06-22T05:02:50;10.70;;;8.73;;
4355;SDS011;64374;51.482;7.408;2023-06-22T05:05:26;11.80;;;9.50;;
4355;SDS011;64374;51.482;7.408;2023-06-22T05:07:56;10.90;;;9.40;;
4355;SDS011;64374;51.482;7.408;2023-06-22T05:10:28;11.33;;;9.10;;
4355;SDS011;64374;51.482;7.408;2023-06-22T05:12:57;13.87;;;10.63;;
4355;SDS011;64374;51.482;7.408;2023-06-22T05:15:26;12.60;;;10.40;;
4355;SDS011;64374;51.482;7.408;2023-06-22T05:17:58;13.63;;;9.40;;
4355;SDS011;64374;51.482;7.408;2023-06-22T05:20:30;13.40;;;9.80;;
4355;SDS011;64374;51.482;7.408;2023-06-22T05:23:00;11.53;;;8.90;;
4355;SDS011;64374;51.482;7.408;2023-06-22T05:25:30;12.10;;;8.50;;
4355;SDS011;64374;51.482;7.408;2023-06-22T05:28:00;11.23;;;9.53;;
4355;SDS011;64374;51.482;7.408;2023-06-22T05:30:37;12.83;;;9.47;;
4355;SDS011;64374;51.482;7.408;2023-06-22T05:33:05;13.30;;;8.20;;
4355;SDS011;64374;51.482;7.408;2023-06-22T05:35:33;10.70;;;8.80;;
4355;SDS011;64374;51.482;7.408;2023-06-22T05:38:02;15.53;;;8.60;;
4355;SDS011;64374;51.482;7.408;2023-06-22T05:40:32;12.87;;;9.73;;
4355;SDS011;64374;51.482;7.408;2023-06-22T05:43:02;15.97;;;9.10;;
4355;SDS011;64374;51.482;7.408;2023-06-22T05:45:31;9.63;;;8.40;;
4355;SDS011;64374;51.482;7.408;2023-06-22T05:47:59;18.23;;;11.33;;
4355;SDS011;64374;51.482;7.408;2023-06-22T05:50:28;12.60;;;9.10;;
4355;SDS011;64374;51.482;7.408;2023-06-22T05:52:57;14.93;;;9.70;;
4355;SDS011;64374;51.482;7.408;2023-06-22T05:55:25;11.03;;;9.23;;
4355;SDS011;64374;51.482;7.408;2023-06-22T05:57:55;11.20;;;8.53;;
4355;SDS011;64374;51.482;7.408;2023-06-22T06:00:24;9.50;;;7.70;;
4355;SDS011;64374;51.482;7.408;2023-06-22T06:02:55;11.60;;;9.47;;
4355;SDS011;64374;51.482;7.408;2023-06-22T06:05:28;11.20;;;8.83;;
4355;SDS011;64374;51.482;7.408;2023-06-22T06:07:57;15.93;;;7.87;;
4355;SDS011;64374;51.482;7.408;2023-06-22T06:10:25;13.00;;;8.77;;
4355;SDS011;64374;51.482;7.408;2023-06-22T06:12:56;13.67;;;9.67;;
4355;SDS011;64374;51.482;7.408;2023-06-22T06:15:25;11.97;;;8.83;;
4355;SDS011;64374;51.482;7.408;2023-06-22T06:17:53;14.47;;;8.50;;
4355;SDS011;64374;51.482;7.408;2023-06-22T06:20:24;11.20;;;9.57;;
4355;SDS011;64374;51.482;7.408;2023-06-22T06:22:55;12.23;;;8.50;;
4355;SDS011;64374;51.482;7.408;2023-06-22T06:25:25;9.90;;;8.33;;
4355;SDS011;64374;51.482;7.408;2023-06-22T06:27:53;12.37;;;10.07;;
4355;SDS011;64374;51.482;7.408;2023-06-22T06:30:23;10.57;;;8.20;;
4355;SDS011;64374;51.482;7.408;2023-06-22T06:32:53;13.60;;;9.37;;
4355;SDS011;64374;51.482;7.408;2023-06-22T06:35:22;13.23;;;8.90;;
4355;SDS011;64374;51.482;7.408;2023-06-22T06:37:51;10.40;;;8.93;;
4355;SDS011;64374;51.482;7.408;2023-06-22T06:40:19;12.17;;;9.50;;
4355;SDS011;64374;51.482;7.408;2023-06-22T06:42:48;12.80;;;10.20;;
4355;SDS011;64374;51.482;7.408;2023-06-22T06:45:17;13.70;;;10.17;;
4355;SDS011;64374;51.482;7.408;2023-06-22T06:47:54;14.23;;;10.50;;
4355;SDS011;64374;51.482;7.408;2023-06-22T06:50:22;12.17;;;9.77;;
4355;SDS011;64374;51.482;7.408;2023-06-22T06:52:50;11.87;;;9.70;;
4355;SDS011;64374;51.482;7.408;2023-06-22T06:55:19;11.00;;;9.07;;
4355;SDS011;64374;51.482;7.408;2023-06-22T06:57:47;13.93;;;11.00;;
4355;SDS011;64374;51.482;7.408;2023-06-22T07:00:16;17.53;;;11.47;;
4355;SDS011;64374;51.482;7.408;2023-06-22T07:02:46;12.33;;;10.30;;
4355;SDS011;64374;51.482;7.408;2023-06-22T07:05:17;13.70;;;11.33;;
4355;SDS011;64374;51.482;7.408;2023-06-22T07:07:48;16.90;;;11.87;;
4355;SDS011;64374;51.482;7.408;2023-06-22T07:10:17;13.30;;;10.67;;
4355;SDS011;64374;51.482;7.408;2023-06-22T07:12:45;18.03;;;11.70;;
4355;SDS011;64374;51.482;7.408;2023-06-22T07:15:13;17.20;;;10.20;;
4355;SDS011;64374;51.482;7.408;2023-06-22T07:17:42;13.50;;;10.40;;
4355;SDS011;64374;51.482;7.408;2023-06-22T07:20:11;13.80;;;10.43;;
4355;SDS011;64374;51.482;7.408;2023-06-22T07:22:42;13.07;;;9.93;;
4355;SDS011;64374;51.482;7.408;2023-06-22T07:25:12;12.50;;;11.20;;
4355;SDS011;64374;51.482;7.408;2023-06-22T07:27:46;16.40;;;10.73;;
4355;SDS011;64374;51.482;7.408;2023-06-22T07:30:24;12.57;;;10.07;;
4355;SDS011;64374;51.482;7.408;2023-06-22T07:33:00;12.60;;;10.30;;
4355;SDS011;64374;51.482;7.408;2023-06-22T07:35:31;13.10;;;11.40;;
4355;SDS011;64374;51.482;7.408;2023-06-22T07:38:01;16.07;;;11.30;;
4355;SDS011;64374;51.482;7.408;2023-06-22T07:40:32;13.90;;;10.50;;
4355;SDS011;64374;51.482;7.408;2023-06-22T07:43:02;18.87;;;11.70;;
4355;SDS011;64374;51.482;7.408;2023-06-22T07:45:31;12.13;;;10.83;;
4355;SDS011;64374;51.482;7.408;2023-06-22T07:48:03;24.63;;;12.03;;
4355;SDS011;64374;51.482;7.408;2023-06-22T07:50:33;14.43;;;12.63;;
4355;SDS011;64374;51.482;7.408;2023-06-22T07:53:03;13.07;;;11.17;;
4355;SDS011;64374;51.482;7.408;2023-06-22T07:55:31;14.90;;;11.90;;
4355;SDS011;64374;51.482;7.408;2023-06-22T07:58:01;15.83;;;12.17;;
4355;SDS011;64374;51.482;7.408;2023-06-22T08:00:29;16.47;;;12.30;;
4355;SDS011;64374;51.482;7.408;2023-06-22T08:02:59;12.50;;;10.40;;
4355;SDS011;64374;51.482;7.408;2023-06-22T08:05:30;16.00;;;13.23;;
4355;SDS011;64374;51.482;7.408;2023-06-22T08:07:59;13.40;;;12.00;;
4355;SDS011;64374;51.482;7.408;2023-06-22T08:10:28;17.40;;;12.50;;
4355;SDS011;64374;51.482;7.408;2023-06-22T08:12:56;14.60;;;12.50;;
4355;SDS011;64374;51.482;7.408;2023-06-22T08:15:25;14.20;;;12.70;;
4355;SDS011;64374;51.482;7.408;2023-06-22T08:17:55;14.77;;;11.47;;
4355;SDS011;64374;51.482;7.408;2023-06-22T08:20:25;15.23;;;13.00;;
4355;SDS011;64374;51.482;7.408;2023-06-22T08:22:55;16.10;;;11.60;;
4355;SDS011;64374;51.482;7.408;2023-06-22T08:25:24;16.47;;;10.47;;
4355;SDS011;64374;51.482;7.408;2023-06-22T08:27:55;18.93;;;13.73;;
4355;SDS011;64374;51.482;7.408;2023-06-22T08:30:23;16.17;;;12.63;;
4355;SDS011;64374;51.482;7.408;2023-06-22T08:32:52;19.30;;;14.33;;
4355;SDS011;64374;51.482;7.408;2023-06-22T08:35:23;13.60;;;12.20;;
4355;SDS011;64374;51.482;7.408;2023-06-22T08:37:53;12.20;;;10.90;;
4355;SDS011;64374;51.482;7.408;2023-06-22T08:40:23;13.83;;;11.27;;
4355;SDS011;64374;51.482;7.408;2023-06-22T08:42:52;11.90;;;10.70;;
4355;SDS011;64374;51.482;7.408;2023-06-22T08:45:22;14.00;;;12.13;;
4355;SDS011;64374;51.482;7.408;2023-06-22T08:47:53;12.57;;;11.37;;
4355;SDS011;64374;51.482;7.408;2023-06-22T08:50:23;15.03;;;11.97;;
4355;SDS011;64374;51.482;7.408;2023-06-22T08:52:56;14.93;;;11.30;;
4355;SDS011;64374;51.482;7.408;2023-06-22T08:55:24;10.87;;;9.77;;
4355;SDS011;64374;51.482;7.408;2023-06-22T08:57:53;11.30;;;10.20;;
4355;SDS011;64374;51.482;7.408;2023-06-22T09:00:22;11.57;;;10.43;;
4355;SDS011;64374;51.482;7.408;2023-06-22T09:02:51;15.33;;;10.00;;
4355;SDS011;64374;51.482;7.408;2023-06-22T09:05:19;10.37;;;9.40;;
4355;SDS011;64374;51.482;7.408;2023-06-22T09:07:49;9.73;;;8.73;;
4355;SDS011;64374;51.482;7.408;2023-06-22T09:10:18;9.93;;;8.93;;
4355;SDS011;64374;51.482;7.408;2023-06-22T09:12:46;9.33;;;8.43;;
4355;SDS011;64374;51.482;7.408;2023-06-22T09:15:16;8.83;;;7.50;;
4355;SDS011;64374;51.482;7.408;2023-06-22T09:17:46;9.70;;;8.57;;
4355;SDS011;64374;51.482;7.408;2023-06-22T09:20:14;11.43;;;9.23;;
4355;SDS011;64374;51.482;7.408;2023-06-22T09:22:43;9.93;;;7.83;;
4355;SDS011;64374;51.482;7.408;2023-06-22T09:25:12;10.80;;;8.07;;
4355;SDS011;64374;51.482;7.408;2023-06-22T09:27:40;10.33;;;8.20;;
4355;SDS011;64374;51.482;7.408;2023-06-22T09:30:08;8.73;;;7.83;;
4355;SDS011;64374;51.482;7.408;2023-06-22T09:32:39;13.43;;;9.40;;
4355;SDS011;64374;51.482;7.408;2023-06-22T09:35:10;10.40;;;8.83;;
4355;SDS011;64374;51.482;7.408;2023-06-22T09:37:39;10.93;;;8.20;;
4355;SDS011;64374;51.482;7.408;2023-06-22T09:40:08;8.67;;;7.00;;
4355;SDS011;64374;51.482;7.408;2023-06-22T09:42:40;10.50;;;8.87;;
4355;SDS011;64374;51.482;7.408;2023-06-22T09:45:10;9.47;;;8.47;;
4355;SDS011;64374;51.482;7.408;2023-06-22T09:47:38;8.80;;;8.00;;
4355;SDS011;64374;51.482;7.408;2023-06-22T09:50:12;13.00;;;6.97;;
4355;SDS011;64374;51.482;7.408;2023-06-22T09:52:41;7.90;;;7.17;;
4355;SDS011;64374;51.482;7.408;2023-06-22T09:55:17;8.43;;;7.30;;
4355;SDS011;64374;51.482;7.408;2023-06-22T09:57:46;7.70;;;7.00;;
4355;SDS011;64374;51.482;7.408;2023-06-22T10:00:15;8.17;;;7.30;;
4355;SDS011;64374;51.482;7.408;2023-06-22T10:02:47;8.50;;;7.00;;
4355;SDS011;64374;51.482;7.408;2023-06-22T10:05:18;8.67;;;7.77;;
4355;SDS011;64374;51.482;7.408;2023-06-22T10:07:47;10.50;;;8.80;;
4355;SDS011;64374;51.482;7.408;2023-06-22T10:10:15;7.60;;;6.90;;
4355;SDS011;64374;51.482;7.408;2023-06-22T10:12:44;10.20;;;8.27;;
4355;SDS011;64374;51.482;7.408;2023-06-22T10:15:15;12.33;;;7.57;;
4355;SDS011;64374;51.482;7.408;2023-06-22T10:17:43;10.87;;;9.77;;
4355;SDS011;64374;51.482;7.408;2023-06-22T10:20:12;9.00;;;8.07;;
4355;SDS011;64374;51.482;7.408;2023-06-22T10:22:43;8.93;;;7.90;;
4355;SDS011;64374;51.482;7.408;2023-06-22T10:25:12;10.93;;;9.17;;
4355;SDS011;64374;51.482;7.408;2023-06-22T10:27:44;12.10;;;9.00;;
4355;SDS011;64374;51.482;7.408;2023-06-22T10:30:12;13.30;;;9.10;;
4355;SDS011;64374;51.482;7.408;2023-06-22T10:32:42;18.60;;;11.50;;
4355;SDS011;64374;51.482;7.408;2023-06-22T10:35:10;12.60;;;10.40;;
4355;SDS011;64374;51.482;7.408;2023-06-22T10:37:43;10.37;;;7.93;;
4355;SDS011;64374;51.482;7.408;2023-06-22T10:40:12;10.23;;;8.33;;
4355;SDS011;64374;51.482;7.408;2023-06-22T10:42:42;9.27;;;8.47;;
4355;SDS011;64374;51.482;7.408;2023-06-22T10:45:10;9.17;;;7.73;;
4355;SDS011;64374;51.482;7.408;2023-06-22T10:47:41;10.00;;;9.00;;
4355;SDS011;64374;51.482;7.408;2023-06-22T10:50:11;8.70;;;7.90;;
4355;SDS011;64374;51.482;7.408;2023-06-22T10:52:39;13.53;;;8.17;;
4355;SDS011;64374;51.482;7.408;2023-06-22T10:55:10;10.07;;;9.07;;
4355;SDS011;64374;51.482;7.408;2023-06-22T10:57:39;10.33;;;8.93;;
4355;SDS011;64374;51.482;7.408;2023-06-22T11:00:12;8.43;;;7.53;;
4355;SDS011;64374;51.482;7.408;2023-06-22T11:02:43;9.43;;;8.63;;
4355;SDS011;64374;51.482;7.408;2023-06-22T11:05:13;8.37;;;7.57;;
4355;SDS011;64374;51.482;7.408;2023-06-22T11:07:42;13.23;;;8.37;;
4355;SDS011;64374;51.482;7.408;2023-06-22T11:10:13;15.43;;;8.80;;
4355;SDS011;64374;51.482;7.408;2023-06-22T11:12:43;10.47;;;8.27;;
4355;SDS011;64374;51.482;7.408;2023-06-22T11:15:11;9.07;;;8.10;;
4355;SDS011;64374;51.482;7.408;2023-06-22T11:17:39;10.13;;;7.77;;
4355;SDS011;64374;51.482;7.408;2023-06-22T11:20:08;8.53;;;7.60;;
4355;SDS011;64374;51.482;7.408;2023-06-22T11:22:38;11.80;;;8.13;;
4355;SDS011;64374;51.482;7.408;2023-06-22T11:25:06;9.10;;;7.37;;
4355;SDS011;64374;51.482;7.408;2023-06-22T11:27:38;15.20;;;8.97;;
4355;SDS011;64374;51.482;7.408;2023-06-22T11:30:08;10.03;;;9.00;;
4355;SDS011;64374;51.482;7.408;2023-06-22T11:32:37;16.67;;;9.10;;
4355;SDS011;64374;51.482;7.408;2023-06-22T11:35:06;12.20;;;8.97;;
4355;SDS011;64374;51.482;7.408;2023-06-22T11:37:34;10.70;;;9.60;;
4355;SDS011;64374;51.482;7.408;2023-06-22T11:40:12;11.90;;;10.23;;
4355;SDS011;64374;51.482;7.408;2023-06-22T11:42:41;11.97;;;10.77;;
4355;SDS011;64374;51.482;7.408;2023-06-22T11:45:10;11.27;;;10.27;;
4355;SDS011;64374;51.482;7.408;2023-06-22T11:47:38;17.23;;;10.07;;
4355;SDS011;64374;51.482;7.408;2023-06-22T11:50:07;11.50;;;9.97;;
4355;SDS011;64374;51.482;7.408;2023-06-22T11:52:36;16.27;;;10.30;;
4355;SDS011;64374;51.482;7.408;2023-06-22T11:55:05;13.07;;;11.67;;
4355;SDS011;64374;51.482;7.408;2023-06-22T11:57:36;12.63;;;10.93;;
4355;SDS011;64374;51.482;7.408;2023-06-22T12:00:07;14.13;;;10.83;;
4355;SDS011;64374;51.482;7.408;2023-06-22T12:02:44;16.57;;;10.10;;
4355;SDS011;64374;51.482;7.408;2023-06-22T12:05:13;13.80;;;11.67;;
4355;SDS011;64374;51.482;7.408;2023-06-22T12:07:41;14.77;;;12.10;;
4355;SDS011;64374;51.482;7.408;2023-06-22T12:10:10;12.37;;;11.13;;
4355;SDS011;64374;51.482;7.408;2023-06-22T12:12:39;12.43;;;11.03;;
4355;SDS011;64374;51.482;7.408;2023-06-22T12:15:09;17.00;;;11.83;;
4355;SDS011;64374;51.482;7.408;2023-06-22T12:17:37;14.83;;;11.20;;
4355;SDS011;64374;51.482;7.408;2023-06-22T12:20:07;12.80;;;10.30;;
4355;SDS011;64374;51.482;7.408;2023-06-22T12:22:39;16.60;;;12.33;;
4355;SDS011;64374;51.482;7.408;2023-06-22T12:25:08;14.50;;;11.37;;
4355;SDS011;64374;51.482;7.408;2023-06-22T12:27:37;17.33;;;12.93;;
4355;SDS011;64374;51.482;7.408;2023-06-22T12:30:06;15.87;;;10.60;;
4355;SDS011;64374;51.482;7.408;2023-06-22T12:32:37;14.97;;;12.07;;
4355;SDS011;64374;51.482;7.408;2023-06-22T12:35:08;15.60;;;11.77;;
4355;SDS011;64374;51.482;7.408;2023-06-22T12:37:41;12.63;;;11.30;;
4355;SDS011;64374;51.482;7.408;2023-06-22T12:40:10;18.90;;;12.33;;
4355;SDS011;64374;51.482;7.408;2023-06-22T12:42:41;11.93;;;10.20;;
4355;SDS011;64374;51.482;7.408;2023-06-22T12:45:10;13.00;;;11.70;;
4355;SDS011;64374;51.482;7.408;2023-06-22T12:47:39;15.50;;;13.00;;
4355;SDS011;64374;51.482;7.408;2023-06-22T12:50:08;14.73;;;11.40;;
4355;SDS011;64374;51.482;7.408;2023-06-22T12:52:36;13.57;;;12.17;;
4355;SDS011;64374;51.482;7.408;2023-06-22T12:55:08;13.70;;;12.10;;
4355;SDS011;64374;51.482;7.408;2023-06-22T12:57:36;12.63;;;10.80;;
4355;SDS011;64374;51.482;7.408;2023-06-22T13:00:05;15.87;;;12.43;;
4355;SDS011;64374;51.482;7.408;2023-06-22T13:02:39;14.03;;;12.57;;
4355;SDS011;64374;51.482;7.408;2023-06-22T13:05:09;14.87;;;13.27;;
4355;SDS011;64374;51.482;7.408;2023-06-22T13:07:37;15.27;;;11.63;;
4355;SDS011;64374;51.482;7.408;2023-06-22T13:10:06;12.13;;;10.93;;
4355;SDS011;64374;51.482;7.408;2023-06-22T13:12:37;14.50;;;11.03;;
4355;SDS011;64374;51.482;7.408;2023-06-22T13:15:06;14.57;;;12.63;;
4355;SDS011;64374;51.482;7.408;2023-06-22T13:17:35;17.80;;;14.17;;
4355;SDS011;64374;51.482;7.408;2023-06-22T13:20:06;16.27;;;11.30;;
4355;SDS011;64374;51.482;7.408;2023-06-22T13:22:36;15.17;;;13.60;;
4355;SDS011;64374;51.482;7.408;2023-06-22T13:25:09;13.57;;;11.60;;
4355;SDS011;64374;51.482;7.408;2023-06-22T13:27:39;13.57;;;12.17;;
4355;SDS011;64374;51.482;7.408;2023-06-22T13:30:08;15.33;;;13.63;;
4355;SDS011;64374;51.482;7.408;2023-06-22T13:32:44;14.13;;;12.43;;
4355;SDS011;64374;51.482;7.408;2023-06-22T13:35:13;13.00;;;11.77;;
4355;SDS011;64374;51.482;7.408;2023-06-22T13:37:42;14.00;;;12.60;;
4355;SDS011;64374;51.482;7.408;2023-06-22T13:40:10;17.77;;;12.20;;
4355;SDS011;64374;51.482;7.408;2023-06-22T13:42:40;13.90;;;12.00;;
4355;SDS011;64374;51.482;7.408;2023-06-22T13:45:09;14.37;;;12.73;;
4355;SDS011;64374;51.482;7.408;2023-06-22T13:47:37;15.50;;;12.53;;
4355;SDS011;64374;51.482;7.408;2023-06-22T13:50:29;13.43;;;12.00;;
4355;SDS011;64374;51.482;7.408;2023-06-22T13:52:58;13.50;;;12.20;;
4355;SDS011;64374;51.482;7.408;2023-06-22T13:55:26;14.17;;;12.63;;
4355;SDS011;64374;51.482;7.408;2023-06-22T13:57:55;18.87;;;12.40;;
4355;SDS011;64374;51.482;7.408;2023-06-22T14:00:23;15.20;;;12.80;;
4355;SDS011;64374;51.482;7.408;2023-06-22T14:02:52;13.83;;;12.50;;
4355;SDS011;64374;51.482;7.408;2023-06-22T14:05:20;10.83;;;9.70;;
4355;SDS011;64374;51.482;7.408;2023-06-22T14:07:51;15.70;;;12.80;;
4355;SDS011;64374;51.482;7.408;2023-06-22T14:10:20;12.97;;;11.27;;
4355;SDS011;64374;51.482;7.408;2023-06-22T14:12:49;14.93;;;13.13;;
4355;SDS011;64374;51.482;7.408;2023-06-22T14:15:20;13.30;;;11.90;;
4355;SDS011;64374;51.482;7.408;2023-06-22T14:17:49;16.97;;;12.00;;
4355;SDS011;64374;51.482;7.408;2023-06-22T14:20:19;12.33;;;11.10;;
4355;SDS011;64374;51.482;7.408;2023-06-22T14:22:47;11.90;;;10.70;;
4355;SDS011;64374;51.482;7.408;2023-06-22T14:25:17;12.67;;;11.37;;
4355;SDS011;64374;51.482;7.408;2023-06-22T14:27:45;16.30;;;12.70;;
4355;SDS011;64374;51.482;7.408;2023-06-22T14:30:14;12.07;;;10.80;;
4355;SDS011;64374;51.482;7.408;2023-06-22T14:32:43;12.40;;;11.07;;
4355;SDS011;64374;51.482;7.408;2023-06-22T14:35:12;11.80;;;10.60;;
4355;SDS011;64374;51.482;7.408;2023-06-22T14:37:40;12.77;;;11.47;;
4355;SDS011;64374;51.482;7.408;2023-06-22T14:40:09;12.27;;;11.07;;
4355;SDS011;64374;51.482;7.408;2023-06-22T14:42:40;11.87;;;10.67;;
4355;SDS011;64374;51.482;7.408;2023-06-22T14:45:08;12.93;;;11.63;;
4355;SDS011;64374;51.482;7.408;2023-06-22T14:47:40;14.03;;;12.50;;
4355;SDS011;64374;51.482;7.408;2023-06-22T14:50:09;12.90;;;11.60;;
4355;SDS011;64374;51.482;7.408;2023-06-22T14:52:40;14.87;;;12.50;;
4355;SDS011;64374;51.482;7.408;2023-06-22T14:55:09;12.73;;;11.43;;
4355;SDS011;64374;51.482;7.408;2023-06-22T14:57:41;12.20;;;11.07;;
4355;SDS011;64374;51.482;7.408;2023-06-22T15:00:10;18.40;;;11.43;;
4355;SDS011;64374;51.482;7.408;2023-06-22T15:02:38;14.77;;;13.03;;